Terminal Aerodrome Forecast
Issued by NWS

Home | Current Version | Previous Version | Text Only | Print | Product List | Glossary On
Versions: 1 2 3 4 5 6 7 8 9 10 11 12
464
FTUS43 KMPX 222338
TAFRWF
TAF
KRWF 222338Z 2300/2324 15013KT P6SM OVC060
     FM231400 16014KT P6SM OVC030
     FM231800 16013G19KT P6SM OVC025
     FM232100 15010KT 4SM -SHRA BR OVC007=

USA.gov is the U.S. government's official web portal to all federal, state and local government web resources and services.